createdAt,value
2022-12-03T00:00:28.782Z,-1.25
2022-12-03T00:01:28.802Z,-1.26
2022-12-03T00:02:28.950Z,-1.28
2022-12-03T00:03:29.112Z,-1.27
2022-12-03T00:04:28.890Z,-1.27
2022-12-03T00:05:28.917Z,-1.27
2022-12-03T00:06:33.031Z,-1.28
2022-12-03T00:07:29.007Z,-1.28
2022-12-03T00:08:29.013Z,-1.3
2022-12-03T00:09:29.092Z,-1.33
2022-12-03T00:10:29.122Z,-1.33
2022-12-03T00:11:29.146Z,-1.34
2022-12-03T00:12:29.177Z,-1.34
2022-12-03T00:13:29.212Z,-1.34
2022-12-03T00:14:29.254Z,-1.34
2022-12-03T00:15:29.388Z,-1.34
2022-12-03T00:16:29.330Z,-1.34
2022-12-03T00:17:29.336Z,-1.34
2022-12-03T00:18:29.370Z,-1.34
2022-12-03T00:19:29.423Z,-1.34
2022-12-03T00:20:29.427Z,-1.34
2022-12-03T00:21:29.459Z,-1.35
2022-12-03T00:22:29.489Z,-1.35
2022-12-03T00:23:29.526Z,-1.33
2022-12-03T00:24:29.562Z,-1.32
2022-12-03T00:25:29.579Z,-1.33
2022-12-03T00:26:29.612Z,-1.31
2022-12-03T00:27:29.641Z,-1.3
2022-12-03T00:28:29.684Z,-1.31
2022-12-03T00:29:29.716Z,-1.32
2022-12-03T00:30:29.760Z,-1.32
2022-12-03T00:31:29.863Z,-1.31
2022-12-03T00:32:29.817Z,-1.29
2022-12-03T00:33:29.835Z,-1.3
2022-12-03T00:34:29.874Z,-1.32
2022-12-03T00:35:29.923Z,-1.33
2022-12-03T00:36:29.941Z,-1.33
2022-12-03T00:37:29.967Z,-1.37
2022-12-03T00:38:30.000Z,-1.35
2022-12-03T00:39:30.022Z,-1.34
2022-12-03T00:40:30.072Z,-1.37
2022-12-03T00:41:30.112Z,-1.35
2022-12-03T00:42:30.118Z,-1.36
2022-12-03T00:43:30.147Z,-1.34
2022-12-03T00:44:30.183Z,-1.34
2022-12-03T00:45:30.205Z,-1.34
2022-12-03T00:46:30.288Z,-1.33
2022-12-03T00:47:30.266Z,-1.32
2022-12-03T00:48:30.301Z,-1.34
2022-12-03T00:49:30.336Z,-1.34
2022-12-03T00:50:30.359Z,-1.36
2022-12-03T00:51:30.388Z,-1.37
2022-12-03T00:52:30.434Z,-1.36
2022-12-03T00:53:30.452Z,-1.36
2022-12-03T00:54:32.278Z,-1.37
2022-12-03T00:55:30.526Z,-1.38
2022-12-03T00:56:30.556Z,-1.38
2022-12-03T00:57:30.589Z,-1.37
2022-12-03T00:58:30.611Z,-1.38
2022-12-03T00:59:30.652Z,-1.39
2022-12-03T01:00:30.679Z,-1.38
2022-12-03T01:01:30.789Z,-1.39
2022-12-03T01:02:30.755Z,-1.38
2022-12-03T01:03:30.763Z,-1.37
2022-12-03T01:04:30.845Z,-1.36
2022-12-03T01:05:30.819Z,-1.4
2022-12-03T01:06:30.844Z,-1.39
2022-12-03T01:07:31.004Z,-1.38
2022-12-03T01:08:30.907Z,-1.36
2022-12-03T01:09:30.942Z,-1.38
2022-12-03T01:10:30.973Z,-1.42
2022-12-03T01:11:31.007Z,-1.42
2022-12-03T01:12:31.046Z,-1.42
2022-12-03T01:13:31.071Z,-1.41
2022-12-03T01:14:31.103Z,-1.41
2022-12-03T01:15:31.137Z,-1.42
2022-12-03T01:16:31.219Z,-1.42
2022-12-03T01:17:31.185Z,-1.43
2022-12-03T01:18:31.230Z,-1.42
2022-12-03T01:19:31.256Z,-1.41
2022-12-03T01:20:31.286Z,-1.41
2022-12-03T01:21:31.325Z,-1.4
2022-12-03T01:22:31.345Z,-1.4
2022-12-03T01:23:31.376Z,-1.42
2022-12-03T01:24:31.397Z,-1.43
2022-12-03T01:25:31.436Z,-1.43
2022-12-03T01:26:31.466Z,-1.43
2022-12-03T01:27:31.492Z,-1.43
2022-12-03T01:28:31.516Z,-1.42
2022-12-03T01:29:31.540Z,-1.43
2022-12-03T01:30:31.559Z,-1.42
2022-12-03T01:31:31.647Z,-1.43
2022-12-03T01:32:31.625Z,-1.42
2022-12-03T01:33:31.675Z,-1.42
2022-12-03T01:34:31.689Z,-1.41
2022-12-03T01:35:31.731Z,-1.43
2022-12-03T01:36:31.749Z,-1.43
2022-12-03T01:37:31.782Z,-1.43
2022-12-03T01:38:31.859Z,-1.44
2022-12-03T01:39:31.843Z,-1.43
2022-12-03T01:40:31.873Z,-1.42
2022-12-03T01:41:31.905Z,-1.44
2022-12-03T01:42:31.926Z,-1.44
2022-12-03T01:43:31.979Z,-1.43
2022-12-03T01:44:31.984Z,-1.42
2022-12-03T01:45:32.001Z,-1.43
2022-12-03T01:46:32.111Z,-1.44
2022-12-03T01:47:32.066Z,-1.44
2022-12-03T01:48:32.156Z,-1.44
2022-12-03T01:49:32.184Z,-1.44
2022-12-03T01:50:32.213Z,-1.41
2022-12-03T01:51:32.242Z,-1.42
2022-12-03T01:52:32.267Z,-1.43
2022-12-03T01:53:32.295Z,-1.44
2022-12-03T01:54:32.321Z,-1.44
2022-12-03T01:55:32.347Z,-1.45
2022-12-03T01:56:32.380Z,-1.45
2022-12-03T01:57:32.420Z,-1.46
2022-12-03T01:58:32.445Z,-1.45
2022-12-03T01:59:32.479Z,-1.41
2022-12-03T02:00:32.509Z,-1.43
2022-12-03T02:01:32.576Z,-1.43
2022-12-03T02:02:32.570Z,-1.42
2022-12-03T02:03:32.635Z,-1.45
2022-12-03T02:04:32.639Z,-1.45
2022-12-03T02:05:32.646Z,-1.43
2022-12-03T02:06:32.680Z,-1.42
2022-12-03T02:07:32.813Z,-1.41
2022-12-03T02:08:32.752Z,-1.39
2022-12-03T02:09:32.823Z,-1.39
2022-12-03T02:10:32.822Z,-1.42
2022-12-03T02:11:32.828Z,-1.42
2022-12-03T02:12:32.859Z,-1.4
2022-12-03T02:13:32.887Z,-1.39
2022-12-03T02:14:32.937Z,-1.41
2022-12-03T02:15:32.941Z,-1.41
2022-12-03T02:16:33.039Z,-1.42
2022-12-03T02:17:32.997Z,-1.4
2022-12-03T02:18:33.019Z,-1.37
2022-12-03T02:19:33.053Z,-1.37
2022-12-03T02:20:33.094Z,-1.39
2022-12-03T02:21:33.120Z,-1.4
2022-12-03T02:22:33.149Z,-1.39
2022-12-03T02:23:33.175Z,-1.39
2022-12-03T02:24:33.208Z,-1.4
2022-12-03T02:25:33.245Z,-1.4
2022-12-03T02:26:33.273Z,-1.39
2022-12-03T02:27:33.308Z,-1.41
2022-12-03T02:28:33.331Z,-1.41
2022-12-03T02:29:33.356Z,-1.37
2022-12-03T02:30:33.371Z,-1.37
2022-12-03T02:31:33.502Z,-1.36
2022-12-03T02:32:33.463Z,-1.37
2022-12-03T02:33:33.476Z,-1.36
2022-12-03T02:34:33.504Z,-1.39
2022-12-03T02:35:33.548Z,-1.4
2022-12-03T02:36:33.550Z,-1.39
2022-12-03T02:37:33.578Z,-1.4
2022-12-03T02:38:33.605Z,-1.4
2022-12-03T02:39:33.632Z,-1.41
2022-12-03T02:40:33.675Z,-1.41
2022-12-03T02:41:33.684Z,-1.41
2022-12-03T02:42:33.711Z,-1.43
2022-12-03T02:43:33.740Z,-1.43
2022-12-03T02:44:33.761Z,-1.44
2022-12-03T02:45:33.808Z,-1.43
2022-12-03T02:46:33.947Z,-1.42
2022-12-03T02:47:33.857Z,-1.43
2022-12-03T02:48:33.964Z,-1.43
2022-12-03T02:49:34.007Z,-1.45
2022-12-03T02:50:34.031Z,-1.44
2022-12-03T02:51:34.058Z,-1.44
2022-12-03T02:52:34.078Z,-1.43
2022-12-03T02:53:34.109Z,-1.44
2022-12-03T02:54:34.138Z,-1.43
2022-12-03T02:55:37.126Z,-1.43
2022-12-03T02:56:34.221Z,-1.43
2022-12-03T02:57:34.236Z,-1.43
2022-12-03T02:58:34.267Z,-1.43
2022-12-03T02:59:34.295Z,-1.43
2022-12-03T03:00:34.398Z,-1.43
2022-12-03T03:01:34.422Z,-1.4
2022-12-03T03:02:34.466Z,-1.41
2022-12-03T03:03:34.418Z,-1.41
2022-12-03T03:04:34.467Z,-1.42
2022-12-03T03:05:34.491Z,-1.42
2022-12-03T03:06:34.531Z,-1.42
2022-12-03T03:07:34.576Z,-1.43
2022-12-03T03:08:34.581Z,-1.43
2022-12-03T03:09:34.621Z,-1.43
2022-12-03T03:10:34.653Z,-1.43
2022-12-03T03:11:34.670Z,-1.42
2022-12-03T03:12:39.020Z,-1.41
2022-12-03T03:13:34.733Z,-1.41
2022-12-03T03:14:34.764Z,-1.42
2022-12-03T03:15:34.774Z,-1.43
2022-12-03T03:16:34.946Z,-1.43
2022-12-03T03:17:34.846Z,-1.43
2022-12-03T03:18:34.870Z,-1.44
2022-12-03T03:19:34.910Z,-1.44
2022-12-03T03:20:34.946Z,-1.44
2022-12-03T03:21:34.995Z,-1.43
2022-12-03T03:22:35.013Z,-1.43
2022-12-03T03:23:35.044Z,-1.43
2022-12-03T03:24:35.069Z,-1.43
2022-12-03T03:25:35.102Z,-1.45
2022-12-03T03:26:35.126Z,-1.44
2022-12-03T03:27:35.163Z,-1.46
2022-12-03T03:28:35.203Z,-1.46
2022-12-03T03:29:35.228Z,-1.45
2022-12-03T03:30:35.257Z,-1.46
2022-12-03T03:31:35.303Z,-1.46
2022-12-03T03:32:35.318Z,-1.46
2022-12-03T03:33:35.345Z,-1.5
2022-12-03T03:34:35.374Z,-1.49
2022-12-03T03:35:35.402Z,-1.47
2022-12-03T03:36:35.426Z,-1.47
2022-12-03T03:37:35.460Z,-1.48
2022-12-03T03:38:35.487Z,-1.49
2022-12-03T03:39:35.507Z,-1.51
2022-12-03T03:40:35.530Z,-1.5
2022-12-03T03:41:35.569Z,-1.53
2022-12-03T03:42:35.735Z,-1.55
2022-12-03T03:43:35.618Z,-1.55
2022-12-03T03:44:35.651Z,-1.53
2022-12-03T03:45:35.769Z,-1.5
2022-12-03T03:46:35.713Z,-1.56
2022-12-03T03:47:35.766Z,-1.57
2022-12-03T03:48:35.786Z,-1.57
2022-12-03T03:49:35.814Z,-1.57
2022-12-03T03:50:35.851Z,-1.56
2022-12-03T03:51:35.878Z,-1.53
2022-12-03T03:52:35.930Z,-1.53
2022-12-03T03:53:35.939Z,-1.54
2022-12-03T03:54:35.972Z,-1.54
2022-12-03T03:55:35.997Z,-1.53
2022-12-03T03:56:36.035Z,-1.54
2022-12-03T03:57:36.063Z,-1.55
2022-12-03T03:58:36.099Z,-1.54
2022-12-03T03:59:36.130Z,-1.53
2022-12-03T04:00:36.166Z,-1.54
2022-12-03T04:01:36.306Z,-1.54
2022-12-03T04:02:36.220Z,-1.53
2022-12-03T04:03:36.450Z,-1.53
2022-12-03T04:04:36.389Z,-1.55
2022-12-03T04:05:36.294Z,-1.53
2022-12-03T04:06:36.324Z,-1.51
2022-12-03T04:07:36.416Z,-1.53
2022-12-03T04:08:36.403Z,-1.52
2022-12-03T04:09:36.413Z,-1.55
2022-12-03T04:10:36.441Z,-1.55
2022-12-03T04:11:36.472Z,-1.55
2022-12-03T04:12:36.505Z,-1.55
2022-12-03T04:13:36.545Z,-1.54
2022-12-03T04:14:36.569Z,-1.55
2022-12-03T04:15:36.616Z,-1.54
2022-12-03T04:16:36.746Z,-1.49
2022-12-03T04:17:36.675Z,-1.48
2022-12-03T04:18:36.694Z,-1.48
2022-12-03T04:19:36.728Z,-1.51
2022-12-03T04:20:36.758Z,-1.52
2022-12-03T04:21:36.788Z,-1.52
2022-12-03T04:22:36.817Z,-1.52
2022-12-03T04:23:36.857Z,-1.51
2022-12-03T04:24:36.889Z,-1.49
2022-12-03T04:25:36.928Z,-1.5
2022-12-03T04:26:36.950Z,-1.49
2022-12-03T04:27:36.988Z,-1.51
2022-12-03T04:28:37.021Z,-1.51
2022-12-03T04:29:37.058Z,-1.51
2022-12-03T04:30:37.138Z,-1.53
2022-12-03T04:31:37.115Z,-1.53
2022-12-03T04:32:37.142Z,-1.52
2022-12-03T04:33:37.171Z,-1.51
2022-12-03T04:34:37.198Z,-1.52
2022-12-03T04:35:37.341Z,-1.53
2022-12-03T04:36:37.258Z,-1.52
2022-12-03T04:37:37.275Z,-1.52
2022-12-03T04:38:37.297Z,-1.55
2022-12-03T04:39:37.335Z,-1.57
2022-12-03T04:40:37.397Z,-1.55
2022-12-03T04:41:37.399Z,-1.55
2022-12-03T04:42:37.425Z,-1.55
2022-12-03T04:43:37.464Z,-1.55
2022-12-03T04:44:37.479Z,-1.54
2022-12-03T04:45:37.590Z,-1.53
2022-12-03T04:46:37.542Z,-1.53
2022-12-03T04:47:40.002Z,-1.54
2022-12-03T04:48:37.607Z,-1.55
2022-12-03T04:49:37.624Z,-1.56
2022-12-03T04:50:37.646Z,-1.57
2022-12-03T04:51:37.678Z,-1.56
2022-12-03T04:52:37.714Z,-1.54
2022-12-03T04:53:40.745Z,-1.54
2022-12-03T04:54:37.789Z,-1.52
2022-12-03T04:55:37.812Z,-1.52
2022-12-03T04:56:37.848Z,-1.5
2022-12-03T04:57:37.886Z,-1.51
2022-12-03T04:58:37.911Z,-1.53
2022-12-03T04:59:37.941Z,-1.53
2022-12-03T05:00:37.972Z,-1.53
2022-12-03T05:01:38.189Z,-1.54
2022-12-03T05:02:38.088Z,-1.51
2022-12-03T05:03:38.070Z,-1.5
2022-12-03T05:04:38.102Z,-1.47
2022-12-03T05:05:38.123Z,-1.44
2022-12-03T05:06:38.155Z,-1.47
2022-12-03T05:07:38.231Z,-1.5
2022-12-03T05:08:38.223Z,-1.5
2022-12-03T05:09:38.242Z,-1.45
2022-12-03T05:10:38.274Z,-1.5
2022-12-03T05:11:38.299Z,-1.49
2022-12-03T05:12:38.349Z,-1.46
2022-12-03T05:13:38.384Z,-1.49
2022-12-03T05:14:38.386Z,-1.51
2022-12-03T05:15:38.428Z,-1.56
2022-12-03T05:16:38.496Z,-1.56
2022-12-03T05:17:38.479Z,-1.55
2022-12-03T05:18:38.542Z,-1.54
2022-12-03T05:19:38.539Z,-1.54
2022-12-03T05:20:38.570Z,-1.52
2022-12-03T05:21:38.599Z,-1.53
2022-12-03T05:22:38.627Z,-1.54
2022-12-03T05:23:38.677Z,-1.53
2022-12-03T05:24:38.694Z,-1.52
2022-12-03T05:25:38.738Z,-1.49
2022-12-03T05:26:38.761Z,-1.5
2022-12-03T05:27:38.800Z,-1.55
2022-12-03T05:28:38.833Z,-1.54
2022-12-03T05:29:38.864Z,-1.51
2022-12-03T05:30:38.951Z,-1.5
2022-12-03T05:31:38.917Z,-1.51
2022-12-03T05:32:38.951Z,-1.51
2022-12-03T05:33:43.994Z,-1.5
2022-12-03T05:34:39.000Z,-1.5
2022-12-03T05:35:39.019Z,-1.53
2022-12-03T05:36:39.060Z,-1.51
2022-12-03T05:37:39.093Z,-1.52
2022-12-03T05:38:39.118Z,-1.52
2022-12-03T05:39:39.142Z,-1.52
2022-12-03T05:40:39.187Z,-1.53
2022-12-03T05:41:39.223Z,-1.53
2022-12-03T05:42:39.267Z,-1.52
2022-12-03T05:43:39.287Z,-1.51
2022-12-03T05:44:39.326Z,-1.52
2022-12-03T05:45:39.345Z,-1.54
2022-12-03T05:46:39.479Z,-1.53
2022-12-03T05:47:39.417Z,-1.52
2022-12-03T05:48:39.456Z,-1.5
2022-12-03T05:49:39.488Z,-1.53
2022-12-03T05:50:39.511Z,-1.49
2022-12-03T05:51:39.541Z,-1.5
2022-12-03T05:52:39.581Z,-1.5
2022-12-03T05:53:39.602Z,-1.46
2022-12-03T05:54:39.638Z,-1.51
2022-12-03T05:55:39.665Z,-1.51
2022-12-03T05:56:39.700Z,-1.5
2022-12-03T05:57:39.732Z,-1.48
2022-12-03T05:58:39.752Z,-1.47
2022-12-03T05:59:39.793Z,-1.43
2022-12-03T06:00:42.881Z,-1.42
2022-12-03T06:01:39.857Z,-1.43
2022-12-03T06:02:39.978Z,-1.45
2022-12-03T06:03:40.028Z,-1.41
2022-12-03T06:04:39.948Z,-1.41
2022-12-03T06:05:40.002Z,-1.43
2022-12-03T06:06:40.019Z,-1.41
2022-12-03T06:07:40.105Z,-1.38
2022-12-03T06:08:40.079Z,-1.38
2022-12-03T06:09:40.115Z,-1.38
2022-12-03T06:10:40.145Z,-1.38
2022-12-03T06:11:40.204Z,-1.37
2022-12-03T06:12:40.197Z,-1.39
2022-12-03T06:13:40.225Z,-1.36
2022-12-03T06:14:40.255Z,-1.36
2022-12-03T06:15:43.766Z,-1.37
2022-12-03T06:16:40.356Z,-1.36
2022-12-03T06:17:40.351Z,-1.37
2022-12-03T06:18:40.369Z,-1.41
2022-12-03T06:19:40.397Z,-1.4
2022-12-03T06:20:40.435Z,-1.39
2022-12-03T06:21:40.474Z,-1.4
2022-12-03T06:22:40.502Z,-1.4
2022-12-03T06:23:40.544Z,-1.4
2022-12-03T06:24:40.579Z,-1.39
2022-12-03T06:25:40.605Z,-1.38
2022-12-03T06:26:40.633Z,-1.37
2022-12-03T06:27:40.666Z,-1.38
2022-12-03T06:28:40.694Z,-1.36
2022-12-03T06:29:40.725Z,-1.37
2022-12-03T06:30:40.762Z,-1.37
2022-12-03T06:31:40.798Z,-1.36
2022-12-03T06:32:40.829Z,-1.37
2022-12-03T06:33:40.868Z,-1.35
2022-12-03T06:34:40.881Z,-1.35
2022-12-03T06:35:40.908Z,-1.35
2022-12-03T06:36:40.944Z,-1.35
2022-12-03T06:37:40.961Z,-1.35
2022-12-03T06:38:40.998Z,-1.32
2022-12-03T06:39:41.013Z,-1.32
2022-12-03T06:40:41.054Z,-1.32
2022-12-03T06:41:41.088Z,-1.3
2022-12-03T06:42:41.116Z,-1.3
2022-12-03T06:43:41.152Z,-1.3
2022-12-03T06:44:41.165Z,-1.31
2022-12-03T06:45:47.428Z,-1.29
2022-12-03T06:46:41.284Z,-1.31
2022-12-03T06:47:41.254Z,-1.29
2022-12-03T06:48:41.298Z,-1.28
2022-12-03T06:49:41.327Z,-1.3
2022-12-03T06:50:41.362Z,-1.33
2022-12-03T06:51:41.391Z,-1.33
2022-12-03T06:52:41.428Z,-1.33
2022-12-03T06:53:41.477Z,-1.32
2022-12-03T06:54:41.491Z,-1.32
2022-12-03T06:55:41.516Z,-1.32
2022-12-03T06:56:45.078Z,-1.32
2022-12-03T06:57:41.574Z,-1.29
2022-12-03T06:58:41.646Z,-1.32
2022-12-03T06:59:41.633Z,-1.29
2022-12-03T07:00:41.659Z,-1.29
2022-12-03T07:01:41.713Z,-1.29
2022-12-03T07:02:41.752Z,-1.3
2022-12-03T07:03:41.750Z,-1.31
2022-12-03T07:04:46.033Z,-1.32
2022-12-03T07:05:41.818Z,-1.34
2022-12-03T07:06:41.844Z,-1.33
2022-12-03T07:07:41.939Z,-1.34
2022-12-03T07:08:41.908Z,-1.34
2022-12-03T07:09:41.970Z,-1.33
2022-12-03T07:10:41.975Z,-1.32
2022-12-03T07:11:42.004Z,-1.32
2022-12-03T07:12:42.045Z,-1.33
2022-12-03T07:13:42.078Z,-1.33
2022-12-03T07:14:42.171Z,-1.33
2022-12-03T07:15:42.272Z,-1.32
2022-12-03T07:16:42.235Z,-1.34
2022-12-03T07:17:42.209Z,-1.34
2022-12-03T07:18:42.243Z,-1.34
2022-12-03T07:19:42.269Z,-1.34
2022-12-03T07:20:42.297Z,-1.35
2022-12-03T07:21:42.332Z,-1.35
2022-12-03T07:22:42.358Z,-1.35
2022-12-03T07:23:42.387Z,-1.31
2022-12-03T07:24:42.428Z,-1.31
2022-12-03T07:25:42.452Z,-1.3
2022-12-03T07:26:42.484Z,-1.3
2022-12-03T07:27:42.511Z,-1.29
2022-12-03T07:28:42.543Z,-1.28
2022-12-03T07:29:42.578Z,-1.28
2022-12-03T07:30:42.607Z,-1.27
2022-12-03T07:31:42.717Z,-1.26
2022-12-03T07:32:42.666Z,-1.26
2022-12-03T07:33:42.698Z,-1.26
2022-12-03T07:34:42.729Z,-1.26
2022-12-03T07:35:42.772Z,-1.26
2022-12-03T07:36:42.782Z,-1.24
2022-12-03T07:37:42.818Z,-1.25
2022-12-03T07:38:42.857Z,-1.25
2022-12-03T07:39:42.876Z,-1.25
2022-12-03T07:40:42.945Z,-1.25
2022-12-03T07:41:42.938Z,-1.25
2022-12-03T07:42:42.981Z,-1.23
2022-12-03T07:43:42.987Z,-1.24
2022-12-03T07:44:43.028Z,-1.24
2022-12-03T07:45:43.082Z,-1.26
2022-12-03T07:46:43.162Z,-1.28
2022-12-03T07:47:43.103Z,-1.29
2022-12-03T07:48:43.131Z,-1.28
2022-12-03T07:49:43.171Z,-1.3
2022-12-03T07:50:43.201Z,-1.29
2022-12-03T07:51:43.258Z,-1.29
2022-12-03T07:52:43.258Z,-1.31
2022-12-03T07:53:43.299Z,-1.31
2022-12-03T07:54:43.319Z,-1.3
2022-12-03T07:55:43.351Z,-1.31
2022-12-03T07:56:43.400Z,-1.3
2022-12-03T07:57:43.410Z,-1.3
2022-12-03T07:58:43.453Z,-1.31
2022-12-03T07:59:43.471Z,-1.3
2022-12-03T08:00:43.586Z,-1.3
2022-12-03T08:01:43.598Z,-1.29
2022-12-03T08:02:43.619Z,-1.3
2022-12-03T08:03:43.622Z,-1.27
2022-12-03T08:04:43.654Z,-1.32
2022-12-03T08:05:43.686Z,-1.32
2022-12-03T08:06:43.725Z,-1.32
2022-12-03T08:07:43.801Z,-1.32
2022-12-03T08:08:43.797Z,-1.32
2022-12-03T08:09:43.818Z,-1.3
2022-12-03T08:10:43.848Z,-1.32
2022-12-03T08:11:43.888Z,-1.32
2022-12-03T08:12:43.927Z,-1.33
2022-12-03T08:13:43.950Z,-1.34
2022-12-03T08:14:43.970Z,-1.35
2022-12-03T08:15:44.002Z,-1.33
2022-12-03T08:16:44.113Z,-1.34
2022-12-03T08:17:44.073Z,-1.35
2022-12-03T08:18:44.123Z,-1.35
2022-12-03T08:19:44.136Z,-1.34
2022-12-03T08:20:44.157Z,-1.34
2022-12-03T08:21:44.208Z,-1.33
2022-12-03T08:22:44.245Z,-1.33
2022-12-03T08:23:44.282Z,-1.33
2022-12-03T08:24:44.301Z,-1.34
2022-12-03T08:25:44.329Z,-1.34
2022-12-03T08:26:44.347Z,-1.34
2022-12-03T08:27:44.398Z,-1.34
2022-12-03T08:28:44.448Z,-1.34
2022-12-03T08:29:44.435Z,-1.33
2022-12-03T08:30:44.462Z,-1.32
2022-12-03T08:31:44.557Z,-1.32
2022-12-03T08:32:44.523Z,-1.31
2022-12-03T08:33:44.584Z,-1.31
2022-12-03T08:34:44.586Z,-1.31
2022-12-03T08:35:44.610Z,-1.31
2022-12-03T08:36:44.656Z,-1.29
2022-12-03T08:37:44.686Z,-1.32
2022-12-03T08:38:44.727Z,-1.32
2022-12-03T08:39:44.754Z,-1.31
2022-12-03T08:40:44.779Z,-1.27
2022-12-03T08:41:44.817Z,-1.27
2022-12-03T08:42:44.834Z,-1.26
2022-12-03T08:43:44.874Z,-1.25
2022-12-03T08:44:44.912Z,-1.26
2022-12-03T08:45:44.957Z,-1.25
2022-12-03T08:46:44.975Z,-1.26
2022-12-03T08:47:45.017Z,-1.25
2022-12-03T08:48:48.685Z,-1.25
2022-12-03T08:49:45.086Z,-1.21
2022-12-03T08:50:45.116Z,-1.22
2022-12-03T08:51:45.145Z,-1.21
2022-12-03T08:52:45.179Z,-1.22
2022-12-03T08:53:45.220Z,-1.21
2022-12-03T08:54:45.248Z,-1.21
2022-12-03T08:55:45.281Z,-1.21
2022-12-03T08:56:45.302Z,-1.14
2022-12-03T08:57:45.329Z,-1.13
2022-12-03T08:58:45.355Z,-1.14
2022-12-03T08:59:45.853Z,-1.14
2022-12-03T09:00:45.441Z,-1.14
2022-12-03T09:01:45.635Z,-1.13
2022-12-03T09:02:45.481Z,-1.11
2022-12-03T09:03:45.532Z,-1.11
2022-12-03T09:04:45.540Z,-1.12
2022-12-03T09:05:45.578Z,-1.13
2022-12-03T09:06:45.585Z,-1.12
2022-12-03T09:07:45.665Z,-1.1
2022-12-03T09:08:45.642Z,-1.1
2022-12-03T09:09:45.694Z,-1.1
2022-12-03T09:10:45.727Z,-1.11
2022-12-03T09:11:45.772Z,-1.1
2022-12-03T09:12:45.776Z,-1.12
2022-12-03T09:13:45.799Z,-1.13
2022-12-03T09:14:45.829Z,-1.13
2022-12-03T09:15:45.863Z,-1.14
2022-12-03T09:16:45.992Z,-1.11
2022-12-03T09:17:45.912Z,-1.09
2022-12-03T09:18:45.944Z,-1.09
2022-12-03T09:19:46.502Z,-1.08
2022-12-03T09:20:46.006Z,-1.08
2022-12-03T09:21:46.254Z,-1.03
2022-12-03T09:22:46.083Z,-1.02
2022-12-03T09:23:46.107Z,-1.01
2022-12-03T09:24:46.135Z,-1.02
2022-12-03T09:25:46.165Z,-1.02
2022-12-03T09:26:46.189Z,-1.01
2022-12-03T09:27:46.224Z,-0.99
2022-12-03T09:28:46.261Z,-1
2022-12-03T09:29:46.291Z,-0.97
2022-12-03T09:30:46.322Z,-1.01
2022-12-03T09:31:46.432Z,-1.01
2022-12-03T09:32:46.384Z,-1
2022-12-03T09:33:46.398Z,-1
2022-12-03T09:34:46.433Z,-0.98
2022-12-03T09:35:46.470Z,-0.96
2022-12-03T09:36:46.502Z,-0.97
2022-12-03T09:37:46.518Z,-0.97
2022-12-03T09:38:48.135Z,-0.98
2022-12-03T09:39:46.574Z,-0.97
2022-12-03T09:40:46.601Z,-0.95
2022-12-03T09:41:46.647Z,-0.96
2022-12-03T09:42:46.711Z,-0.96
2022-12-03T09:44:03.964Z,-0.95
2022-12-03T09:44:46.737Z,-0.94
2022-12-03T09:45:46.945Z,-0.91
2022-12-03T09:46:46.806Z,-0.91
2022-12-03T09:47:46.858Z,-0.87
2022-12-03T09:48:46.860Z,-0.88
2022-12-03T09:49:46.878Z,-0.86
2022-12-03T09:50:46.924Z,-0.86
2022-12-03T09:51:46.955Z,-0.87
2022-12-03T09:52:46.997Z,-0.86
2022-12-03T09:53:47.017Z,-0.8
2022-12-03T09:54:47.758Z,-0.78
2022-12-03T09:55:47.089Z,-0.71
2022-12-03T09:56:47.094Z,-0.72
2022-12-03T09:57:47.125Z,-0.75
2022-12-03T09:58:47.171Z,-0.72
2022-12-03T09:59:47.181Z,-0.68
2022-12-03T10:00:47.199Z,-0.69
2022-12-03T10:01:47.319Z,-0.69
2022-12-03T10:02:47.261Z,-0.69
2022-12-03T10:03:47.323Z,-0.7
2022-12-03T10:04:47.395Z,-0.69
2022-12-03T10:05:48.320Z,-0.69
2022-12-03T10:06:47.401Z,-0.67
2022-12-03T10:07:47.480Z,-0.66
2022-12-03T10:08:47.476Z,-0.68
2022-12-03T10:09:47.512Z,-0.68
2022-12-03T10:10:47.522Z,-0.65
2022-12-03T10:11:47.551Z,-0.69
2022-12-03T10:12:47.575Z,-0.7
2022-12-03T10:13:47.611Z,-0.7
2022-12-03T10:14:47.654Z,-0.73
2022-12-03T10:15:47.675Z,-0.73
2022-12-03T10:16:47.785Z,-0.73
2022-12-03T10:17:47.743Z,-0.73
2022-12-03T10:18:47.773Z,-0.73
2022-12-03T10:19:47.795Z,-0.75
2022-12-03T10:20:47.821Z,-0.73
2022-12-03T10:21:48.028Z,-0.72
2022-12-03T10:22:47.994Z,-0.72
2022-12-03T10:23:50.828Z,-0.73
2022-12-03T10:24:48.075Z,-0.72
2022-12-03T10:25:48.082Z,-0.73
2022-12-03T10:26:48.104Z,-0.71
2022-12-03T10:27:48.146Z,-0.72
2022-12-03T10:28:48.172Z,-0.72
2022-12-03T10:29:48.220Z,-0.72
2022-12-03T10:30:48.311Z,-0.72
2022-12-03T10:31:48.263Z,-0.71
2022-12-03T10:32:48.305Z,-0.72
2022-12-03T10:33:48.343Z,-0.71
2022-12-03T10:34:48.395Z,-0.72
2022-12-03T10:35:48.388Z,-0.72
2022-12-03T10:36:48.419Z,-0.69
2022-12-03T10:37:48.447Z,-0.69
2022-12-03T10:38:48.475Z,-0.7
2022-12-03T10:39:52.478Z,-0.7
2022-12-03T10:40:48.530Z,-0.72
2022-12-03T10:41:48.566Z,-0.73
2022-12-03T10:42:48.599Z,-0.74
2022-12-03T10:43:48.629Z,-0.72
2022-12-03T10:44:48.655Z,-0.74
2022-12-03T10:45:48.758Z,-0.75
2022-12-03T10:46:48.804Z,-0.74
2022-12-03T10:47:48.825Z,-0.73
2022-12-03T10:48:48.770Z,-0.73
2022-12-03T10:49:48.796Z,-0.78
2022-12-03T10:50:48.829Z,-0.77
2022-12-03T10:51:48.872Z,-0.78
2022-12-03T10:52:48.883Z,-0.74
2022-12-03T10:53:48.918Z,-0.69
2022-12-03T10:54:48.942Z,-0.67
2022-12-03T10:55:48.975Z,-0.7
2022-12-03T10:56:49.019Z,-0.71
2022-12-03T10:57:49.037Z,-0.7
2022-12-03T10:58:49.066Z,-0.71
2022-12-03T10:59:49.095Z,-0.73
2022-12-03T11:00:49.126Z,-0.72
2022-12-03T11:01:49.257Z,-0.72
2022-12-03T11:02:54.832Z,-0.71
2022-12-03T11:03:49.298Z,-0.7
2022-12-03T11:04:49.247Z,-0.7
2022-12-03T11:05:49.288Z,-0.7
2022-12-03T11:06:49.313Z,-0.69
2022-12-03T11:07:49.383Z,-0.71
2022-12-03T11:08:54.728Z,-0.72
2022-12-03T11:09:49.412Z,-0.73
2022-12-03T11:10:49.449Z,-0.74
2022-12-03T11:11:49.479Z,-0.77
2022-12-03T11:12:49.530Z,-0.77
2022-12-03T11:13:49.540Z,-0.76
2022-12-03T11:14:49.563Z,-0.8
2022-12-03T11:15:49.622Z,-0.76
2022-12-03T11:16:49.625Z,-0.76
2022-12-03T11:17:49.666Z,-0.75
2022-12-03T11:18:49.698Z,-0.76
2022-12-03T11:19:49.728Z,-0.75
2022-12-03T11:20:49.761Z,-0.75
2022-12-03T11:21:49.787Z,-0.72
2022-12-03T11:22:49.817Z,-0.73
2022-12-03T11:23:49.893Z,-0.74
2022-12-03T11:24:49.922Z,-0.74
2022-12-03T11:25:49.944Z,-0.67
2022-12-03T11:26:49.981Z,-0.68
2022-12-03T11:27:50.010Z,-0.69
2022-12-03T11:28:50.028Z,-0.68
2022-12-03T11:29:50.066Z,-0.68
2022-12-03T11:30:50.189Z,-0.68
2022-12-03T11:31:50.189Z,-0.72
2022-12-03T11:32:50.150Z,-0.72
2022-12-03T11:33:50.186Z,-0.67
2022-12-03T11:34:50.215Z,-0.65
2022-12-03T11:35:50.244Z,-0.65
2022-12-03T11:37:01.485Z,-0.65
2022-12-03T11:37:50.314Z,-0.66
2022-12-03T11:38:53.376Z,-0.64
2022-12-03T11:39:50.449Z,-0.66
2022-12-03T11:40:50.421Z,-0.67
2022-12-03T11:41:50.429Z,-0.68
2022-12-03T11:42:50.463Z,-0.69
2022-12-03T11:43:50.533Z,-0.7
2022-12-03T11:44:50.525Z,-0.7
2022-12-03T11:45:50.641Z,-0.69
2022-12-03T11:46:50.682Z,-0.69
2022-12-03T11:47:50.616Z,-0.67
2022-12-03T11:48:50.681Z,-0.67
2022-12-03T11:49:50.685Z,-0.67
2022-12-03T11:50:50.716Z,-0.7
2022-12-03T11:51:50.746Z,-0.68
2022-12-03T11:52:50.775Z,-0.68
2022-12-03T11:53:51.013Z,-0.67
2022-12-03T11:54:50.842Z,-0.68
2022-12-03T11:55:50.869Z,-0.67
2022-12-03T11:56:50.904Z,-0.68
2022-12-03T11:57:50.935Z,-0.67
2022-12-03T11:58:50.962Z,-0.67
2022-12-03T11:59:51.109Z,-0.66
2022-12-03T12:00:51.014Z,-0.67
2022-12-03T12:01:51.043Z,-0.63
2022-12-03T12:02:51.145Z,-0.63
2022-12-03T12:03:51.294Z,-0.62
2022-12-03T12:04:51.125Z,-0.63
2022-12-03T12:05:51.211Z,-0.62
2022-12-03T12:06:53.478Z,-0.62
2022-12-03T12:07:51.373Z,-0.63
2022-12-03T12:08:51.354Z,-0.64
2022-12-03T12:09:51.636Z,-0.63
2022-12-03T12:10:51.444Z,-0.64
2022-12-03T12:11:51.479Z,-0.62
2022-12-03T12:12:55.146Z,-0.63
2022-12-03T12:14:23.901Z,-0.61
2022-12-03T12:15:56.870Z,-0.61
2022-12-03T12:17:06.331Z,-0.61
2022-12-03T12:18:06.358Z,-0.61
2022-12-03T12:19:06.392Z,-0.64
2022-12-03T12:20:49.048Z,-0.63
2022-12-03T12:22:05.690Z,-0.65
2022-12-03T12:23:05.709Z,-0.65
2022-12-03T12:24:05.754Z,-0.64
2022-12-03T12:25:05.794Z,-0.64
2022-12-03T12:26:05.800Z,-0.64
2022-12-03T12:27:05.830Z,-0.63
2022-12-03T12:28:05.860Z,-0.64
2022-12-03T12:29:05.894Z,-0.63
2022-12-03T12:30:05.937Z,-0.64
2022-12-03T12:31:05.988Z,-0.65
2022-12-03T12:32:06.062Z,-0.62
2022-12-03T12:33:06.025Z,-0.6
2022-12-03T12:34:06.047Z,-0.61
2022-12-03T12:35:06.092Z,-0.63
2022-12-03T12:36:06.124Z,-0.63
2022-12-03T12:37:06.142Z,-0.64
2022-12-03T12:38:06.168Z,-0.64
2022-12-03T12:39:06.214Z,-0.64
2022-12-03T12:40:06.248Z,-0.64
2022-12-03T12:41:06.272Z,-0.64
2022-12-03T12:42:06.309Z,-0.65
2022-12-03T12:43:13.206Z,-0.64
2022-12-03T12:44:06.364Z,-0.62
2022-12-03T12:45:06.385Z,-0.63
2022-12-03T12:46:38.626Z,-0.62
2022-12-03T12:47:06.469Z,-0.61
2022-12-03T12:48:06.490Z,-0.61
2022-12-03T12:49:06.517Z,-0.62
2022-12-03T12:50:06.544Z,-0.63
2022-12-03T12:51:06.574Z,-0.62
2022-12-03T12:52:06.607Z,-0.6
2022-12-03T12:53:06.657Z,-0.62
2022-12-03T12:54:06.658Z,-0.61
2022-12-03T12:55:06.695Z,-0.6
2022-12-03T12:56:06.732Z,-0.59
2022-12-03T12:57:06.770Z,-0.6
2022-12-03T12:58:06.836Z,-0.58